createdAt,value
2018-02-13T00:00:38.981Z,-8.31
2018-02-13T00:01:38.831Z,-8.26
2018-02-13T00:02:38.690Z,-8.26
2018-02-13T00:03:38.560Z,-8.31
2018-02-13T00:04:38.414Z,-8.34
2018-02-13T00:05:38.277Z,-8.35
2018-02-13T00:06:38.137Z,-8.31
2018-02-13T00:07:38.001Z,-8.34
2018-02-13T00:08:37.859Z,-8.32
2018-02-13T00:09:37.723Z,-8.26
2018-02-13T00:10:37.583Z,-8.34
2018-02-13T00:11:37.444Z,-8.32
2018-02-13T00:12:37.307Z,-8.29
2018-02-13T00:13:37.167Z,-8.35
2018-02-13T00:14:37.028Z,-8.29
2018-02-13T00:15:36.889Z,-8.29
2018-02-13T00:16:36.752Z,-8.27
2018-02-13T00:17:36.613Z,-8.29
2018-02-13T00:18:36.472Z,-8.29
2018-02-13T00:19:36.340Z,-8.27
2018-02-13T00:20:36.197Z,-8.26
2018-02-13T00:21:36.058Z,-8.31
2018-02-13T00:22:35.921Z,-8.27
2018-02-13T00:23:35.780Z,-8.27
2018-02-13T00:24:35.647Z,-8.23
2018-02-13T00:25:35.506Z,-8.27
2018-02-13T00:26:35.365Z,-8.31
2018-02-13T00:27:35.227Z,-8.24
2018-02-13T00:28:35.087Z,-8.06
2018-02-13T00:29:34.948Z,-8.10
2018-02-13T00:30:34.809Z,-8.03
2018-02-13T00:31:34.672Z,-8.02
2018-02-13T00:32:34.535Z,-7.95
2018-02-13T00:33:34.395Z,-7.97
2018-02-13T00:34:34.255Z,-7.97
2018-02-13T00:35:34.117Z,-7.90
2018-02-13T00:36:33.983Z,-7.98
2018-02-13T00:37:33.840Z,-7.94
2018-02-13T00:38:33.706Z,-7.94
2018-02-13T00:39:33.562Z,-7.91
2018-02-13T00:40:33.425Z,-7.84
2018-02-13T00:41:33.289Z,-7.86
2018-02-13T00:42:33.148Z,-7.88
2018-02-13T00:43:33.012Z,-8.02
2018-02-13T00:44:32.872Z,-7.95
2018-02-13T00:45:32.743Z,-8.03
2018-02-13T00:46:32.596Z,-7.99
2018-02-13T00:47:32.461Z,-7.97
2018-02-13T00:48:32.324Z,-7.94
2018-02-13T00:49:32.185Z,-7.94
2018-02-13T00:50:32.043Z,-7.99
2018-02-13T00:51:31.906Z,-7.99
2018-02-13T00:52:31.768Z,-8.02
2018-02-13T00:53:31.629Z,-8.13
2018-02-13T00:54:31.492Z,-8.16
2018-02-13T00:55:31.355Z,-8.29
2018-02-13T00:56:31.217Z,-8.31
2018-02-13T00:57:31.081Z,-8.32
2018-02-13T00:58:30.960Z,-8.26
2018-02-13T00:59:30.803Z,-8.31
2018-02-13T01:00:30.665Z,-8.21
2018-02-13T01:01:30.525Z,-8.34
2018-02-13T01:02:30.397Z,-8.21
2018-02-13T01:03:30.249Z,-8.19
2018-02-13T01:04:30.112Z,-8.24
2018-02-13T01:05:29.973Z,-8.56
2018-02-13T01:06:29.833Z,-8.52
2018-02-13T01:07:29.696Z,-8.56
2018-02-13T01:08:29.558Z,-8.66
2018-02-13T01:09:29.421Z,-8.71
2018-02-13T01:10:29.282Z,-8.73
2018-02-13T01:11:29.141Z,-8.70
2018-02-13T01:12:29.012Z,-8.62
2018-02-13T01:13:28.867Z,-8.63
2018-02-13T01:14:28.725Z,-8.68
2018-02-13T01:15:28.591Z,-8.63
2018-02-13T01:16:28.451Z,-8.76
2018-02-13T01:17:28.312Z,-8.74
2018-02-13T01:18:28.170Z,-8.80
2018-02-13T01:19:28.032Z,-8.81
2018-02-13T01:20:27.895Z,-8.86
2018-02-13T01:21:27.754Z,-8.84
2018-02-13T01:22:27.617Z,-8.99
2018-02-13T01:23:27.479Z,-8.97
2018-02-13T01:24:27.339Z,-8.94
2018-02-13T01:25:27.200Z,-9.06
2018-02-13T01:26:27.061Z,-9.02
2018-02-13T01:27:26.921Z,-9.04
2018-02-13T01:28:26.783Z,-9.09
2018-02-13T01:29:26.643Z,-9.02
2018-02-13T01:30:26.507Z,-9.04
2018-02-13T01:31:26.367Z,-9.09
2018-02-13T01:32:26.226Z,-9.04
2018-02-13T01:33:26.085Z,-9.06
2018-02-13T01:34:25.946Z,-9.01
2018-02-13T01:35:25.809Z,-8.97
2018-02-13T01:36:25.671Z,-9.04
2018-02-13T01:37:25.530Z,-9.08
2018-02-13T01:38:25.390Z,-9.02
2018-02-13T01:39:25.249Z,-9.01
2018-02-13T01:40:25.115Z,-9.10
2018-02-13T01:41:24.974Z,-9.10
2018-02-13T01:42:24.836Z,-9.18
2018-02-13T01:43:24.693Z,-9.09
2018-02-13T01:44:24.552Z,-9.12
2018-02-13T01:45:24.414Z,-9.09
2018-02-13T01:46:24.276Z,-9.19
2018-02-13T01:47:24.136Z,-9.18
2018-02-13T01:48:23.996Z,-9.23
2018-02-13T01:49:23.859Z,-9.22
2018-02-13T01:50:23.715Z,-9.28
2018-02-13T01:51:23.577Z,-9.22
2018-02-13T01:52:23.436Z,-9.27
2018-02-13T01:53:23.297Z,-9.30
2018-02-13T01:54:23.155Z,-9.26
2018-02-13T01:55:23.020Z,-9.27
2018-02-13T01:56:22.878Z,-9.22
2018-02-13T01:57:22.738Z,-9.27
2018-02-13T01:58:22.599Z,-9.20
2018-02-13T01:59:22.462Z,-9.31
2018-02-13T02:00:22.320Z,-9.23
2018-02-13T02:01:22.181Z,-9.33
2018-02-13T02:02:22.041Z,-9.28
2018-02-13T02:03:21.900Z,-9.27
2018-02-13T02:04:21.758Z,-9.27
2018-02-13T02:05:21.621Z,-9.27
2018-02-13T02:06:21.479Z,-9.23
2018-02-13T02:07:21.340Z,-9.27
2018-02-13T02:08:21.203Z,-9.28
2018-02-13T02:09:21.060Z,-9.23
2018-02-13T02:10:20.920Z,-9.34
2018-02-13T02:11:20.783Z,-9.34
2018-02-13T02:12:20.639Z,-9.31
2018-02-13T02:13:20.502Z,-9.41
2018-02-13T02:14:20.360Z,-9.40
2018-02-13T02:15:20.220Z,-9.38
2018-02-13T02:16:20.083Z,-9.46
2018-02-13T02:17:19.944Z,-9.55
2018-02-13T02:18:19.803Z,-9.55
2018-02-13T02:19:19.666Z,-9.52
2018-02-13T02:20:19.522Z,-9.55
2018-02-13T02:21:19.382Z,-9.49
2018-02-13T02:22:19.248Z,-9.48
2018-02-13T02:23:19.105Z,-9.55
2018-02-13T02:24:18.964Z,-9.46
2018-02-13T02:25:18.821Z,-9.59
2018-02-13T02:26:18.685Z,-9.46
2018-02-13T02:27:18.544Z,-9.55
2018-02-13T02:28:18.401Z,-9.56
2018-02-13T02:29:18.263Z,-9.55
2018-02-13T02:30:18.126Z,-9.50
2018-02-13T02:31:17.984Z,-9.58
2018-02-13T02:32:17.846Z,-9.59
2018-02-13T02:33:17.705Z,-9.60
2018-02-13T02:34:17.564Z,-9.56
2018-02-13T02:35:17.425Z,-9.71
2018-02-13T02:36:17.283Z,-9.71
2018-02-13T02:37:17.145Z,-9.69
2018-02-13T02:38:17.002Z,-9.77
2018-02-13T02:39:16.866Z,-9.76
2018-02-13T02:40:16.724Z,-9.79
2018-02-13T02:41:16.582Z,-9.87
2018-02-13T02:42:16.446Z,-9.87
2018-02-13T02:43:16.303Z,-9.84
2018-02-13T02:44:16.166Z,-9.80
2018-02-13T02:45:16.032Z,-9.87
2018-02-13T02:46:15.884Z,-9.89
2018-02-13T02:47:15.743Z,-9.98
2018-02-13T02:48:15.605Z,-9.95
2018-02-13T02:49:15.466Z,-9.97
2018-02-13T02:50:15.322Z,-9.92
2018-02-13T02:51:15.199Z,-10.08
2018-02-13T02:52:15.043Z,-9.95
2018-02-13T02:53:14.905Z,-10.00
2018-02-13T02:54:14.767Z,-10.15
2018-02-13T02:55:14.622Z,-10.05
2018-02-13T02:56:14.480Z,-10.10
2018-02-13T02:57:14.338Z,-10.10
2018-02-13T02:58:14.201Z,-10.13
2018-02-13T02:59:14.061Z,-10.10
2018-02-13T03:00:13.921Z,-10.06
2018-02-13T03:01:13.780Z,-10.16
2018-02-13T03:02:13.642Z,-10.16
2018-02-13T03:03:13.497Z,-10.15
2018-02-13T03:04:13.359Z,-10.10
2018-02-13T03:05:13.217Z,-10.13
2018-02-13T03:06:13.077Z,-10.10
2018-02-13T03:07:12.936Z,-10.20
2018-02-13T03:08:12.798Z,-10.13
2018-02-13T03:09:12.659Z,-10.08
2018-02-13T03:10:12.515Z,-10.06
2018-02-13T03:11:12.375Z,-10.08
2018-02-13T03:12:12.234Z,-10.05
2018-02-13T03:13:12.096Z,-10.05
2018-02-13T03:14:11.954Z,-10.00
2018-02-13T03:15:11.811Z,-10.00
2018-02-13T03:16:11.674Z,-9.98
2018-02-13T03:17:11.533Z,-10.16
2018-02-13T03:18:11.390Z,-10.24
2018-02-13T03:19:11.256Z,-10.48
2018-02-13T03:20:11.110Z,-10.33
2018-02-13T03:21:10.969Z,-10.26
2018-02-13T03:22:10.829Z,-10.13
2018-02-13T03:23:10.686Z,-10.06
2018-02-13T03:24:10.561Z,-10.27
2018-02-13T03:25:10.405Z,-10.36
2018-02-13T03:26:10.266Z,-10.45
2018-02-13T03:27:10.124Z,-10.45
2018-02-13T03:28:09.982Z,-10.48
2018-02-13T03:29:09.841Z,-10.42
2018-02-13T03:30:09.703Z,-10.55
2018-02-13T03:31:09.559Z,-10.58
2018-02-13T03:32:09.419Z,-10.54
2018-02-13T03:33:09.301Z,-10.58
2018-02-13T03:34:09.137Z,-10.55
2018-02-13T03:35:08.998Z,-10.59
2018-02-13T03:36:08.853Z,-10.62
2018-02-13T03:37:08.714Z,-10.73
2018-02-13T03:38:08.572Z,-10.65
2018-02-13T03:39:08.431Z,-10.68
2018-02-13T03:40:08.290Z,-10.72
2018-02-13T03:41:08.149Z,-10.63
2018-02-13T03:42:08.006Z,-10.63
2018-02-13T03:43:07.867Z,-10.70
2018-02-13T03:44:07.725Z,-10.76
2018-02-13T03:45:07.583Z,-10.65
2018-02-13T03:46:07.446Z,-10.66
2018-02-13T03:47:07.301Z,-10.69
2018-02-13T03:48:07.162Z,-10.63
2018-02-13T03:49:07.021Z,-10.79
2018-02-13T03:50:06.890Z,-10.63
2018-02-13T03:51:06.739Z,-10.65
2018-02-13T03:52:06.598Z,-10.73
2018-02-13T03:53:06.458Z,-10.76
2018-02-13T03:54:06.322Z,-10.81
2018-02-13T03:55:06.178Z,-10.73
2018-02-13T03:56:06.034Z,-10.65
2018-02-13T03:57:05.892Z,-10.83
2018-02-13T03:58:05.753Z,-10.79
2018-02-13T03:59:05.608Z,-10.83
2018-02-13T04:00:05.469Z,-10.92
2018-02-13T04:01:05.351Z,-10.87
2018-02-13T04:02:05.186Z,-10.85
2018-02-13T04:03:05.045Z,-10.85
2018-02-13T04:04:04.905Z,-10.83
2018-02-13T04:05:04.763Z,-10.94
2018-02-13T04:06:04.623Z,-10.94
2018-02-13T04:07:04.480Z,-10.91
2018-02-13T04:08:04.342Z,-10.91
2018-02-13T04:09:04.201Z,-10.99
2018-02-13T04:10:04.058Z,-10.94
2018-02-13T04:11:03.917Z,-11.02
2018-02-13T04:12:03.778Z,-11.16
2018-02-13T04:13:03.636Z,-11.08
2018-02-13T04:14:03.493Z,-11.08
2018-02-13T04:15:03.357Z,-11.16
2018-02-13T04:16:03.212Z,-11.05
2018-02-13T04:17:03.070Z,-11.05
2018-02-13T04:18:02.929Z,-11.02
2018-02-13T04:19:02.789Z,-11.03
2018-02-13T04:20:02.648Z,-11.16
2018-02-13T04:21:02.506Z,-11.16
2018-02-13T04:22:02.366Z,-11.16
2018-02-13T04:23:02.223Z,-11.17
2018-02-13T04:24:02.089Z,-11.21
2018-02-13T04:25:01.944Z,-11.17
2018-02-13T04:26:01.804Z,-11.24
2018-02-13T04:27:01.660Z,-11.19
2018-02-13T04:28:01.522Z,-11.27
2018-02-13T04:29:01.378Z,-11.26
2018-02-13T04:30:01.236Z,-11.24
2018-02-13T04:31:01.094Z,-11.40
2018-02-13T04:32:00.952Z,-11.34
2018-02-13T04:33:00.818Z,-11.30
2018-02-13T04:34:00.668Z,-11.24
2018-02-13T04:35:00.528Z,-11.16
2018-02-13T04:36:00.384Z,-11.19
2018-02-13T04:37:00.248Z,-11.24
2018-02-13T04:38:00.112Z,-11.23
2018-02-13T04:38:59.965Z,-11.29
2018-02-13T04:39:59.820Z,-11.45
2018-02-13T04:40:59.679Z,-11.41
2018-02-13T04:41:59.539Z,-11.40
2018-02-13T04:42:59.395Z,-11.35
2018-02-13T04:43:59.256Z,-11.37
2018-02-13T04:44:59.113Z,-11.29
2018-02-13T04:45:58.979Z,-11.34
2018-02-13T04:46:58.831Z,-11.24
2018-02-13T04:47:58.688Z,-11.19
2018-02-13T04:48:58.550Z,-11.16
2018-02-13T04:49:58.406Z,-11.21
2018-02-13T04:50:58.265Z,-11.24
2018-02-13T04:51:58.122Z,-11.16
2018-02-13T04:52:57.981Z,-11.23
2018-02-13T04:53:57.843Z,-11.24
2018-02-13T04:54:57.699Z,-11.17
2018-02-13T04:55:57.558Z,-11.29
2018-02-13T04:56:57.415Z,-11.27
2018-02-13T04:57:57.276Z,-11.38
2018-02-13T04:58:57.133Z,-11.37
2018-02-13T04:59:56.994Z,-11.41
2018-02-13T05:00:56.853Z,-11.35
2018-02-13T05:01:56.709Z,-11.41
2018-02-13T05:02:56.570Z,-11.35
2018-02-13T05:03:56.427Z,-11.34
2018-02-13T05:04:56.334Z,-11.41
2018-02-13T05:05:56.151Z,-11.47
2018-02-13T05:06:56.003Z,-11.27
2018-02-13T05:07:55.863Z,-11.30
2018-02-13T05:08:55.720Z,-11.24
2018-02-13T05:09:55.577Z,-11.34
2018-02-13T05:10:55.441Z,-11.27
2018-02-13T05:11:55.297Z,-11.19
2018-02-13T05:12:55.157Z,-11.24
2018-02-13T05:13:55.014Z,-11.21
2018-02-13T05:14:54.875Z,-11.31
2018-02-13T05:15:54.733Z,-11.37
2018-02-13T05:16:54.590Z,-11.44
2018-02-13T05:17:54.451Z,-11.34
2018-02-13T05:18:54.403Z,-11.31
2018-02-13T05:19:54.166Z,-11.27
2018-02-13T05:20:54.025Z,-11.31
2018-02-13T05:21:53.882Z,-11.37
2018-02-13T05:22:53.741Z,-11.41
2018-02-13T05:23:53.609Z,-11.40
2018-02-13T05:24:53.461Z,-11.45
2018-02-13T05:25:53.834Z,-11.48
2018-02-13T05:26:53.178Z,-11.56
2018-02-13T05:27:53.033Z,-11.59
2018-02-13T05:28:52.901Z,-11.48
2018-02-13T05:29:52.750Z,-11.52
2018-02-13T05:30:52.610Z,-11.48
2018-02-13T05:31:52.471Z,-11.52
2018-02-13T05:32:52.331Z,-11.47
2018-02-13T05:33:52.186Z,-11.62
2018-02-13T05:34:52.046Z,-11.66
2018-02-13T05:35:51.921Z,-11.68
2018-02-13T05:36:51.761Z,-11.73
2018-02-13T05:37:51.625Z,-11.73
2018-02-13T05:38:51.558Z,-11.72
2018-02-13T05:39:51.339Z,-11.65
2018-02-13T05:40:51.194Z,-11.72
2018-02-13T05:41:51.053Z,-11.69
2018-02-13T05:42:50.909Z,-11.68
2018-02-13T05:43:50.772Z,-11.66
2018-02-13T05:44:50.724Z,-11.66
2018-02-13T05:45:50.484Z,-11.66
2018-02-13T05:46:51.010Z,-11.72
2018-02-13T05:47:50.202Z,-11.73
2018-02-13T05:48:50.060Z,-11.69
2018-02-13T05:49:49.916Z,-11.56
2018-02-13T05:50:49.777Z,-11.72
2018-02-13T05:51:49.631Z,-11.66
2018-02-13T05:52:49.489Z,-11.59
2018-02-13T05:53:49.355Z,-11.68
2018-02-13T05:54:49.206Z,-11.50
2018-02-13T05:55:49.066Z,-11.38
2018-02-13T05:56:48.925Z,-11.19
2018-02-13T05:57:48.783Z,-11.05
2018-02-13T05:58:48.639Z,-10.94
2018-02-13T05:59:48.497Z,-11.16
2018-02-13T06:00:48.352Z,-11.19
2018-02-13T06:01:48.212Z,-11.31
2018-02-13T06:02:48.070Z,-11.42
2018-02-13T06:03:47.986Z,-11.61
2018-02-13T06:04:47.788Z,-11.66
2018-02-13T06:05:47.642Z,-11.63
2018-02-13T06:06:47.499Z,-11.66
2018-02-13T06:07:47.360Z,-11.76
2018-02-13T06:08:47.223Z,-11.69
2018-02-13T06:09:47.076Z,-11.62
2018-02-13T06:10:46.933Z,-11.68
2018-02-13T06:11:46.794Z,-11.68
2018-02-13T06:12:46.651Z,-11.76
2018-02-13T06:13:46.508Z,-11.69
2018-02-13T06:14:46.365Z,-11.69
2018-02-13T06:15:46.226Z,-11.66
2018-02-13T06:16:46.091Z,-11.69
2018-02-13T06:17:45.941Z,-11.66
2018-02-13T06:18:45.798Z,-11.62
2018-02-13T06:19:45.656Z,-11.68
2018-02-13T06:20:45.516Z,-11.79
2018-02-13T06:21:45.374Z,-11.73
2018-02-13T06:22:45.232Z,-11.66
2018-02-13T06:23:45.091Z,-11.69
2018-02-13T06:24:44.948Z,-11.74
2018-02-13T06:25:44.807Z,-11.68
2018-02-13T06:26:44.664Z,-11.72
2018-02-13T06:27:44.533Z,-11.87
2018-02-13T06:28:44.381Z,-11.83
2018-02-13T06:29:44.237Z,-12.00
2018-02-13T06:30:44.096Z,-11.90
2018-02-13T06:31:43.970Z,-11.98
2018-02-13T06:32:43.816Z,-11.92
2018-02-13T06:33:43.673Z,-11.92
2018-02-13T06:34:43.529Z,-11.92
2018-02-13T06:35:43.388Z,-11.92
2018-02-13T06:36:43.247Z,-11.95
2018-02-13T06:37:43.105Z,-11.94
2018-02-13T06:38:42.966Z,-11.95
2018-02-13T06:39:42.823Z,-11.95
2018-02-13T06:40:42.680Z,-11.97
2018-02-13T06:41:42.540Z,-11.90
2018-02-13T06:42:42.392Z,-11.90
2018-02-13T06:43:42.292Z,-12.00
2018-02-13T06:44:42.138Z,-11.87
2018-02-13T06:45:41.971Z,-11.90
2018-02-13T06:46:41.825Z,-11.97
2018-02-13T06:47:41.681Z,-11.92
2018-02-13T06:48:42.366Z,-11.97
2018-02-13T06:49:41.416Z,-11.91
2018-02-13T06:50:41.307Z,-11.94
2018-02-13T06:51:41.160Z,-11.95
2018-02-13T06:52:40.971Z,-11.97
2018-02-13T06:53:40.831Z,-11.95
2018-02-13T06:54:40.690Z,-12.01
2018-02-13T06:55:40.545Z,-11.90
2018-02-13T06:56:40.408Z,-11.92
2018-02-13T06:57:40.259Z,-11.95
2018-02-13T06:58:40.117Z,-11.87
2018-02-13T06:59:39.974Z,-11.97
2018-02-13T07:00:39.834Z,-11.91
2018-02-13T07:01:39.689Z,-11.84
2018-02-13T07:02:39.551Z,-11.84
2018-02-13T07:03:39.408Z,-11.91
2018-02-13T07:04:39.264Z,-11.91
2018-02-13T07:05:39.122Z,-11.90
2018-02-13T07:06:38.981Z,-11.92
2018-02-13T07:07:38.837Z,-11.94
2018-02-13T07:08:38.697Z,-12.00
2018-02-13T07:09:38.551Z,-11.83
2018-02-13T07:10:38.412Z,-11.97
2018-02-13T07:11:38.275Z,-11.90
2018-02-13T07:12:38.128Z,-12.00
2018-02-13T07:13:37.986Z,-11.84
2018-02-13T07:14:37.844Z,-11.82
2018-02-13T07:15:37.703Z,-11.82
2018-02-13T07:16:37.560Z,-11.83
2018-02-13T07:17:37.416Z,-11.90
2018-02-13T07:18:37.277Z,-11.87
2018-02-13T07:19:37.134Z,-11.80
2018-02-13T07:20:36.993Z,-11.87
2018-02-13T07:21:36.850Z,-11.80
2018-02-13T07:22:36.707Z,-11.87
2018-02-13T07:23:36.565Z,-11.73
2018-02-13T07:24:36.427Z,-11.77
2018-02-13T07:25:36.282Z,-11.74
2018-02-13T07:26:36.141Z,-11.77
2018-02-13T07:27:35.997Z,-11.76
2018-02-13T07:28:35.858Z,-11.74
2018-02-13T07:29:35.714Z,-11.73
2018-02-13T07:30:35.574Z,-11.69
2018-02-13T07:31:35.434Z,-11.68
2018-02-13T07:32:35.288Z,-11.66
2018-02-13T07:33:35.146Z,-11.68
2018-02-13T07:34:35.005Z,-11.62
2018-02-13T07:35:34.864Z,-11.65
2018-02-13T07:36:34.728Z,-11.61
2018-02-13T07:37:34.579Z,-11.62
2018-02-13T07:38:34.443Z,-11.65
2018-02-13T07:39:34.296Z,-11.63
2018-02-13T07:40:34.158Z,-11.66
2018-02-13T07:41:34.011Z,-11.61
2018-02-13T07:42:33.871Z,-11.66
2018-02-13T07:43:33.729Z,-11.65
2018-02-13T07:44:33.593Z,-11.63
2018-02-13T07:45:33.447Z,-11.63
2018-02-13T07:46:33.305Z,-11.61
2018-02-13T07:47:33.164Z,-11.61
2018-02-13T07:48:33.022Z,-11.63
2018-02-13T07:49:32.879Z,-11.48
2018-02-13T07:50:32.764Z,-11.59
2018-02-13T07:51:32.650Z,-11.48
2018-02-13T07:52:32.456Z,-11.45
2018-02-13T07:53:32.317Z,-11.56
2018-02-13T07:54:32.174Z,-11.53
2018-02-13T07:55:32.033Z,-11.44
2018-02-13T07:56:31.945Z,-11.45
2018-02-13T07:57:31.749Z,-11.52
2018-02-13T07:58:31.608Z,-11.52
2018-02-13T07:59:31.466Z,-11.44
2018-02-13T08:00:31.325Z,-11.42
2018-02-13T08:01:31.196Z,-11.34
2018-02-13T08:02:31.042Z,-11.48
2018-02-13T08:03:30.903Z,-11.38
2018-02-13T08:04:30.761Z,-11.37
2018-02-13T08:05:30.621Z,-11.41
2018-02-13T08:06:30.479Z,-11.41
2018-02-13T08:07:30.338Z,-11.35
2018-02-13T08:08:30.195Z,-11.41
2018-02-13T08:09:30.059Z,-11.41
2018-02-13T08:10:29.914Z,-11.42
2018-02-13T08:11:29.771Z,-11.31
2018-02-13T08:12:29.631Z,-11.41
2018-02-13T08:13:29.498Z,-11.34
2018-02-13T08:14:29.410Z,-11.34
2018-02-13T08:15:29.209Z,-11.30
2018-02-13T08:16:29.067Z,-11.08
2018-02-13T08:17:28.924Z,-10.80
2018-02-13T08:18:28.786Z,-10.47
2018-02-13T08:19:28.644Z,-10.08
2018-02-13T08:20:28.507Z,-9.77
2018-02-13T08:21:28.362Z,-9.36
2018-02-13T08:22:28.225Z,-8.91
2018-02-13T08:23:28.084Z,-8.50
2018-02-13T08:24:27.940Z,-8.03
2018-02-13T08:25:27.804Z,-7.83
2018-02-13T08:26:27.661Z,-7.44
2018-02-13T08:27:27.521Z,-7.12
2018-02-13T08:28:27.387Z,-6.92
2018-02-13T08:29:27.248Z,-6.59
2018-02-13T08:30:27.107Z,-6.47
2018-02-13T08:31:27.015Z,-6.33
2018-02-13T08:32:26.836Z,-5.98
2018-02-13T08:33:26.693Z,-5.87
2018-02-13T08:34:26.556Z,-5.69
2018-02-13T08:35:26.422Z,-5.54
2018-02-13T08:36:26.285Z,-5.43
2018-02-13T08:37:26.146Z,-5.43
2018-02-13T08:38:26.009Z,-5.55
2018-02-13T08:39:25.874Z,-5.51
2018-02-13T08:40:25.739Z,-5.43
2018-02-13T08:41:25.601Z,-5.30
2018-02-13T08:42:25.468Z,-5.23
2018-02-13T08:43:25.332Z,-5.17
2018-02-13T08:44:25.194Z,-5.11
2018-02-13T08:45:25.060Z,-5.12
2018-02-13T08:46:24.925Z,-4.93
2018-02-13T08:47:24.790Z,-4.94
2018-02-13T08:48:24.655Z,-4.85
2018-02-13T08:49:24.537Z,-5.33
2018-02-13T08:50:24.384Z,-5.76
2018-02-13T08:51:24.250Z,-5.79
2018-02-13T08:52:24.113Z,-5.92
2018-02-13T08:53:23.978Z,-5.84
2018-02-13T08:54:23.844Z,-5.91
2018-02-13T08:55:23.709Z,-5.87
2018-02-13T08:56:23.574Z,-5.76
2018-02-13T08:57:23.439Z,-5.56
2018-02-13T08:58:23.302Z,-5.52
2018-02-13T08:59:23.167Z,-5.40
2018-02-13T09:00:23.035Z,-5.43
2018-02-13T09:01:22.902Z,-5.49
2018-02-13T09:02:22.762Z,-5.23
2018-02-13T09:03:22.627Z,-4.94
2018-02-13T09:04:22.493Z,-4.95
2018-02-13T09:05:22.369Z,-4.94
2018-02-13T09:06:22.224Z,-5.12
2018-02-13T09:07:22.094Z,-5.19
2018-02-13T09:08:21.954Z,-5.05
2018-02-13T09:09:21.820Z,-4.89
2018-02-13T09:10:22.376Z,-4.69
2018-02-13T09:11:21.550Z,-4.94
2018-02-13T09:12:21.415Z,-5.01
2018-02-13T09:13:21.279Z,-5.05
2018-02-13T09:14:21.146Z,-4.97
2018-02-13T09:15:21.014Z,-4.57
2018-02-13T09:16:20.877Z,-5.08
2018-02-13T09:17:20.742Z,-4.83
2018-02-13T09:18:20.605Z,-4.41
2018-02-13T09:19:20.473Z,-4.23
2018-02-13T09:20:20.369Z,-3.96
2018-02-13T09:21:20.201Z,-3.67
2018-02-13T09:22:20.113Z,-3.41
2018-02-13T09:23:19.934Z,-3.13
2018-02-13T09:24:19.802Z,-3.04
2018-02-13T09:25:19.667Z,-2.93
2018-02-13T09:26:19.533Z,-2.78
2018-02-13T09:27:19.398Z,-2.86
2018-02-13T09:28:19.266Z,-3.04
2018-02-13T09:29:19.133Z,-3.11
2018-02-13T09:30:18.998Z,-3.31
2018-02-13T09:31:18.865Z,-3.72
2018-02-13T09:32:18.733Z,-3.78
2018-02-13T09:33:18.598Z,-3.54
2018-02-13T09:34:18.463Z,-3.46
2018-02-13T09:35:18.330Z,-3.68
2018-02-13T09:36:18.200Z,-3.75
2018-02-13T09:37:18.065Z,-3.99
2018-02-13T09:38:17.935Z,-4.19
2018-02-13T09:39:17.800Z,-4.23
2018-02-13T09:40:17.689Z,-4.48
2018-02-13T09:41:17.532Z,-4.25
2018-02-13T09:42:17.397Z,-4.08
2018-02-13T09:43:17.265Z,-3.78
2018-02-13T09:44:17.133Z,-3.51
2018-02-13T09:45:16.996Z,-3.54
2018-02-13T09:46:16.862Z,-3.43
2018-02-13T09:47:16.731Z,-3.32
2018-02-13T09:48:16.596Z,-3.31
2018-02-13T09:49:16.461Z,-3.54
2018-02-13T09:50:16.328Z,-3.70
2018-02-13T09:51:16.194Z,-3.91
2018-02-13T09:52:16.063Z,-3.70
2018-02-13T09:53:15.931Z,-3.41
2018-02-13T09:54:15.797Z,-3.44
2018-02-13T09:55:15.662Z,-2.97
2018-02-13T09:56:15.527Z,-2.85
2018-02-13T09:57:15.393Z,-2.76
2018-02-13T09:58:15.260Z,-3.28
2018-02-13T09:59:15.150Z,-3.41
2018-02-13T10:00:14.995Z,-3.50
2018-02-13T10:01:14.856Z,-3.22
2018-02-13T10:02:14.726Z,-3.29
2018-02-13T10:03:14.629Z,-3.31
2018-02-13T10:04:14.459Z,-3.61
2018-02-13T10:05:14.323Z,-3.35
2018-02-13T10:06:14.192Z,-3.33
2018-02-13T10:07:14.057Z,-3.64
2018-02-13T10:08:13.922Z,-3.47
2018-02-13T10:09:13.789Z,-3.23
2018-02-13T10:10:13.657Z,-3.18
2018-02-13T10:11:13.522Z,-3.32
2018-02-13T10:12:13.388Z,-3.23
2018-02-13T10:13:13.253Z,-3.31
2018-02-13T10:14:13.131Z,-3.57
2018-02-13T10:15:12.983Z,-3.41
2018-02-13T10:16:12.851Z,-3.26
2018-02-13T10:17:12.718Z,-3.41
2018-02-13T10:18:12.585Z,-3.62
2018-02-13T10:19:12.449Z,-3.67
2018-02-13T10:20:12.315Z,-3.70
2018-02-13T10:21:12.240Z,-3.75
2018-02-13T10:22:12.049Z,-3.44
2018-02-13T10:23:11.916Z,-3.49
2018-02-13T10:24:11.780Z,-3.57
2018-02-13T10:25:11.647Z,-3.29
2018-02-13T10:26:11.514Z,-3.15
2018-02-13T10:27:11.387Z,-3.00
2018-02-13T10:28:11.244Z,-2.92
2018-02-13T10:29:11.112Z,-2.56
2018-02-13T10:30:10.980Z,-2.71
2018-02-13T10:31:10.846Z,-2.76
2018-02-13T10:32:10.715Z,-3.00
2018-02-13T10:33:10.580Z,-3.05
2018-02-13T10:34:10.445Z,-3.05
2018-02-13T10:35:10.313Z,-2.54
2018-02-13T10:36:10.182Z,-2.13
2018-02-13T10:37:10.048Z,-1.60
2018-02-13T10:38:09.919Z,-1.05
2018-02-13T10:39:09.784Z,-1.06
2018-02-13T10:40:09.651Z,-1.56
2018-02-13T10:41:09.519Z,-1.84
2018-02-13T10:42:09.385Z,-2.14
2018-02-13T10:43:09.252Z,-2.06
2018-02-13T10:44:09.121Z,-2.20
2018-02-13T10:45:08.990Z,-2.39
2018-02-13T10:46:08.854Z,-2.18
2018-02-13T10:47:08.723Z,-2.05
2018-02-13T10:48:08.591Z,-1.99
2018-02-13T10:49:08.455Z,-2.17
2018-02-13T10:50:08.325Z,-1.67
2018-02-13T10:51:08.191Z,-2.29
2018-02-13T10:52:08.074Z,-1.80
2018-02-13T10:53:07.928Z,-2.16
2018-02-13T10:54:07.797Z,-2.16
2018-02-13T10:55:07.670Z,-2.20
2018-02-13T10:56:07.534Z,-2.18
2018-02-13T10:57:07.401Z,-2.48
2018-02-13T10:58:07.270Z,-2.39
2018-02-13T10:59:07.138Z,-1.95
2018-02-13T11:00:07.006Z,-1.25
2018-02-13T11:01:06.874Z,-1.31
2018-02-13T11:02:06.743Z,-1.36
2018-02-13T11:03:06.610Z,-1.39
2018-02-13T11:04:06.478Z,-1.63
2018-02-13T11:05:06.345Z,-2.03
2018-02-13T11:06:06.223Z,-1.93
2018-02-13T11:07:06.081Z,-1.96
2018-02-13T11:08:05.953Z,-1.59
2018-02-13T11:09:05.819Z,-1.54
2018-02-13T11:10:05.685Z,-1.30
2018-02-13T11:11:05.558Z,-1.51
2018-02-13T11:12:05.425Z,-1.27
2018-02-13T11:13:05.291Z,-0.97
2018-02-13T11:14:05.165Z,-1.39
2018-02-13T11:15:05.031Z,-1.66
2018-02-13T11:16:04.897Z,-1.35
2018-02-13T11:17:04.767Z,-1.20
2018-02-13T11:18:04.639Z,-1.74
2018-02-13T11:19:04.504Z,-1.77
2018-02-13T11:20:04.375Z,-1.95
2018-02-13T11:21:04.241Z,-1.70
2018-02-13T11:22:04.110Z,-1.39
2018-02-13T11:23:03.983Z,-1.42
2018-02-13T11:24:03.846Z,-1.54
2018-02-13T11:25:03.714Z,-1.88
2018-02-13T11:26:03.584Z,-2.05
2018-02-13T11:27:03.450Z,-2.03
2018-02-13T11:28:03.322Z,-2.03
2018-02-13T11:29:03.186Z,-1.84
2018-02-13T11:30:03.056Z,-1.82
2018-02-13T11:31:02.922Z,-1.51
2018-02-13T11:32:02.793Z,-1.18
2018-02-13T11:33:02.660Z,-1.27
2018-02-13T11:34:02.529Z,-1.02
2018-02-13T11:35:02.397Z,-0.92
2018-02-13T11:36:02.273Z,-0.68
2018-02-13T11:37:02.134Z,-0.37
2018-02-13T11:38:02.002Z,-0.52
2018-02-13T11:39:01.871Z,-0.81
2018-02-13T11:40:01.737Z,-0.69
2018-02-13T11:41:01.608Z,-1.05
2018-02-13T11:42:01.476Z,-1.30
2018-02-13T11:43:01.344Z,-1.57
2018-02-13T11:44:01.214Z,-1.49
2018-02-13T11:45:01.083Z,-1.35
2018-02-13T11:46:00.955Z,-1.48
2018-02-13T11:47:00.827Z,-1.62
2018-02-13T11:48:00.688Z,-1.69
2018-02-13T11:49:00.558Z,-1.49
2018-02-13T11:50:00.426Z,-1.25
2018-02-13T11:51:00.299Z,-1.42
2018-02-13T11:52:00.163Z,-1.53
2018-02-13T11:53:00.037Z,-1.81
2018-02-13T11:53:59.900Z,-2.38
2018-02-13T11:54:59.770Z,-1.98
2018-02-13T11:55:59.636Z,-1.70
2018-02-13T11:56:59.511Z,-1.62
2018-02-13T11:57:59.372Z,-1.98
2018-02-13T11:58:59.239Z,-1.87
2018-02-13T11:59:59.106Z,-1.80
2018-02-13T12:00:58.977Z,-1.72
2018-02-13T12:01:58.844Z,-1.67
2018-02-13T12:02:58.711Z,-1.30
2018-02-13T12:03:58.581Z,-1.31
2018-02-13T12:04:58.449Z,-0.99
2018-02-13T12:05:58.318Z,-0.77
2018-02-13T12:06:58.186Z,-1.31
2018-02-13T12:07:58.054Z,-1.21
2018-02-13T12:08:57.919Z,-0.78
2018-02-13T12:09:57.790Z,-0.63
2018-02-13T12:10:57.658Z,-1.18
2018-02-13T12:11:57.526Z,-1.02
2018-02-13T12:12:57.393Z,-0.73
2018-02-13T12:13:57.263Z,-0.51
2018-02-13T12:14:57.132Z,-0.52
2018-02-13T12:15:57.001Z,-0.41
2018-02-13T12:16:56.874Z,-0.37
2018-02-13T12:17:56.736Z,-0.66
2018-02-13T12:18:56.606Z,-0.55
2018-02-13T12:19:56.474Z,-0.87
2018-02-13T12:20:56.344Z,-1.13
2018-02-13T12:21:56.212Z,-1.31
2018-02-13T12:22:56.081Z,-1.66
2018-02-13T12:23:55.958Z,-1.63
2018-02-13T12:24:55.816Z,-1.39
2018-02-13T12:25:55.686Z,-1.12
2018-02-13T12:26:55.555Z,-1.02
2018-02-13T12:27:55.426Z,-0.72
2018-02-13T12:28:55.292Z,-1.06
2018-02-13T12:29:55.163Z,-1.20
2018-02-13T12:30:55.036Z,-0.89
2018-02-13T12:31:54.900Z,-0.51
2018-02-13T12:32:54.770Z,-0.39
2018-02-13T12:33:54.636Z,-0.34
2018-02-13T12:34:54.507Z,-0.65
2018-02-13T12:35:54.376Z,-0.68
2018-02-13T12:36:54.242Z,-0.63
2018-02-13T12:37:54.113Z,-0.72
2018-02-13T12:38:53.982Z,-0.48
2018-02-13T12:39:53.850Z,-0.37
2018-02-13T12:40:53.720Z,-0.54